sensor_id;sensor_type;location;lat;lon;timestamp;P1;durP1;ratioP1;P2;durP2;ratioP2
3549;SDS011;45572;48.804;8.330;2022-09-12T00:00:49;13.82;;;7.30;;
3549;SDS011;45572;48.804;8.330;2022-09-12T00:03:17;10.25;;;6.80;;
3549;SDS011;45572;48.804;8.330;2022-09-12T00:05:45;16.13;;;7.32;;
3549;SDS011;45572;48.804;8.330;2022-09-12T00:08:13;10.38;;;6.90;;
3549;SDS011;45572;48.804;8.330;2022-09-12T00:10:42;9.25;;;7.35;;
3549;SDS011;45572;48.804;8.330;2022-09-12T00:13:13;9.18;;;7.22;;
3549;SDS011;45572;48.804;8.330;2022-09-12T00:15:41;12.05;;;6.95;;
3549;SDS011;45572;48.804;8.330;2022-09-12T00:18:11;11.10;;;7.32;;
3549;SDS011;45572;48.804;8.330;2022-09-12T00:20:41;7.72;;;5.82;;
3549;SDS011;45572;48.804;8.330;2022-09-12T00:23:10;9.18;;;6.30;;
3549;SDS011;45572;48.804;8.330;2022-09-12T00:25:41;10.85;;;6.43;;
3549;SDS011;45572;48.804;8.330;2022-09-12T00:28:09;15.90;;;7.68;;
3549;SDS011;45572;48.804;8.330;2022-09-12T00:30:40;11.65;;;7.88;;
3549;SDS011;45572;48.804;8.330;2022-09-12T00:33:09;8.35;;;6.15;;
3549;SDS011;45572;48.804;8.330;2022-09-12T00:35:41;18.88;;;7.60;;
3549;SDS011;45572;48.804;8.330;2022-09-12T00:38:09;13.02;;;7.53;;
3549;SDS011;45572;48.804;8.330;2022-09-12T00:40:37;9.15;;;6.88;;
3549;SDS011;45572;48.804;8.330;2022-09-12T00:43:09;9.43;;;6.75;;
3549;SDS011;45572;48.804;8.330;2022-09-12T00:45:40;10.60;;;6.60;;
3549;SDS011;45572;48.804;8.330;2022-09-12T00:48:13;13.30;;;5.93;;
3549;SDS011;45572;48.804;8.330;2022-09-12T00:50:47;10.90;;;7.10;;
3549;SDS011;45572;48.804;8.330;2022-09-12T00:53:16;13.95;;;7.03;;
3549;SDS011;45572;48.804;8.330;2022-09-12T00:55:47;15.73;;;7.43;;
3549;SDS011;45572;48.804;8.330;2022-09-12T00:58:19;13.82;;;7.72;;
3549;SDS011;45572;48.804;8.330;2022-09-12T01:00:50;9.90;;;6.60;;
3549;SDS011;45572;48.804;8.330;2022-09-12T01:03:19;11.25;;;8.38;;
3549;SDS011;45572;48.804;8.330;2022-09-12T01:05:51;13.85;;;6.78;;
3549;SDS011;45572;48.804;8.330;2022-09-12T01:08:22;12.93;;;7.53;;
3549;SDS011;45572;48.804;8.330;2022-09-12T01:10:51;10.60;;;6.82;;
3549;SDS011;45572;48.804;8.330;2022-09-12T01:13:21;9.25;;;6.53;;
3549;SDS011;45572;48.804;8.330;2022-09-12T01:15:49;15.63;;;7.28;;
3549;SDS011;45572;48.804;8.330;2022-09-12T01:18:19;13.40;;;7.10;;
3549;SDS011;45572;48.804;8.330;2022-09-12T01:21:00;12.07;;;7.55;;
3549;SDS011;45572;48.804;8.330;2022-09-12T01:23:47;12.98;;;8.20;;
3549;SDS011;45572;48.804;8.330;2022-09-12T01:26:43;11.50;;;7.53;;
3549;SDS011;45572;48.804;8.330;2022-09-12T01:29:29;9.23;;;6.72;;
3549;SDS011;45572;48.804;8.330;2022-09-12T01:32:14;10.90;;;7.55;;
3549;SDS011;45572;48.804;8.330;2022-09-12T01:34:48;13.23;;;6.82;;
3549;SDS011;45572;48.804;8.330;2022-09-12T01:37:26;15.63;;;8.35;;
3549;SDS011;45572;48.804;8.330;2022-09-12T01:40:02;12.60;;;8.10;;
3549;SDS011;45572;48.804;8.330;2022-09-12T01:42:42;15.05;;;9.05;;
3549;SDS011;45572;48.804;8.330;2022-09-12T01:45:19;12.10;;;8.05;;
3549;SDS011;45572;48.804;8.330;2022-09-12T01:47:55;12.70;;;7.90;;
3549;SDS011;45572;48.804;8.330;2022-09-12T01:50:27;9.38;;;6.82;;
3549;SDS011;45572;48.804;8.330;2022-09-12T01:52:59;9.25;;;6.63;;
3549;SDS011;45572;48.804;8.330;2022-09-12T01:55:32;10.20;;;6.53;;
3549;SDS011;45572;48.804;8.330;2022-09-12T01:58:04;13.27;;;7.75;;
3549;SDS011;45572;48.804;8.330;2022-09-12T02:00:36;10.35;;;7.40;;
3549;SDS011;45572;48.804;8.330;2022-09-12T02:03:15;11.20;;;7.88;;
3549;SDS011;45572;48.804;8.330;2022-09-12T02:05:49;12.73;;;7.18;;
3549;SDS011;45572;48.804;8.330;2022-09-12T02:08:24;9.63;;;6.88;;
3549;SDS011;45572;48.804;8.330;2022-09-12T02:10:55;10.32;;;7.18;;
3549;SDS011;45572;48.804;8.330;2022-09-12T02:13:30;9.02;;;6.90;;
3549;SDS011;45572;48.804;8.330;2022-09-12T02:16:03;15.98;;;7.90;;
3549;SDS011;45572;48.804;8.330;2022-09-12T02:18:37;14.27;;;7.97;;
3549;SDS011;45572;48.804;8.330;2022-09-12T02:21:08;14.27;;;7.68;;
3549;SDS011;45572;48.804;8.330;2022-09-12T02:23:37;13.93;;;7.80;;
3549;SDS011;45572;48.804;8.330;2022-09-12T02:26:10;12.27;;;7.88;;
3549;SDS011;45572;48.804;8.330;2022-09-12T02:28:50;10.65;;;7.95;;
3549;SDS011;45572;48.804;8.330;2022-09-12T02:31:20;15.50;;;8.40;;
3549;SDS011;45572;48.804;8.330;2022-09-12T02:33:54;13.88;;;7.70;;
3549;SDS011;45572;48.804;8.330;2022-09-12T02:36:37;10.50;;;6.80;;
3549;SDS011;45572;48.804;8.330;2022-09-12T02:39:12;12.68;;;7.35;;
3549;SDS011;45572;48.804;8.330;2022-09-12T02:41:44;8.73;;;7.05;;
3549;SDS011;45572;48.804;8.330;2022-09-12T02:44:12;16.38;;;9.20;;
3549;SDS011;45572;48.804;8.330;2022-09-12T02:46:43;12.55;;;8.30;;
3549;SDS011;45572;48.804;8.330;2022-09-12T02:49:15;14.85;;;7.40;;
3549;SDS011;45572;48.804;8.330;2022-09-12T02:51:43;9.75;;;7.18;;
3549;SDS011;45572;48.804;8.330;2022-09-12T02:54:12;14.50;;;7.90;;
3549;SDS011;45572;48.804;8.330;2022-09-12T02:56:43;11.98;;;6.90;;
3549;SDS011;45572;48.804;8.330;2022-09-12T02:59:13;12.05;;;7.43;;
3549;SDS011;45572;48.804;8.330;2022-09-12T03:01:48;11.75;;;7.07;;
3549;SDS011;45572;48.804;8.330;2022-09-12T03:04:31;17.65;;;8.90;;
3549;SDS011;45572;48.804;8.330;2022-09-12T03:07:12;12.48;;;7.20;;
3549;SDS011;45572;48.804;8.330;2022-09-12T03:09:51;13.55;;;8.15;;
3549;SDS011;45572;48.804;8.330;2022-09-12T03:12:33;12.05;;;7.72;;
3549;SDS011;45572;48.804;8.330;2022-09-12T03:15:11;15.07;;;8.32;;
3549;SDS011;45572;48.804;8.330;2022-09-12T03:17:54;11.27;;;7.72;;
3549;SDS011;45572;48.804;8.330;2022-09-12T03:20:35;12.98;;;7.82;;
3549;SDS011;45572;48.804;8.330;2022-09-12T03:23:13;10.85;;;7.30;;
3549;SDS011;45572;48.804;8.330;2022-09-12T03:25:51;11.82;;;7.25;;
3549;SDS011;45572;48.804;8.330;2022-09-12T03:28:22;11.65;;;7.82;;
3549;SDS011;45572;48.804;8.330;2022-09-12T03:30:51;12.30;;;7.85;;
3549;SDS011;45572;48.804;8.330;2022-09-12T03:33:21;11.02;;;6.90;;
3549;SDS011;45572;48.804;8.330;2022-09-12T03:35:52;10.18;;;6.50;;
3549;SDS011;45572;48.804;8.330;2022-09-12T03:38:20;11.55;;;7.53;;
3549;SDS011;45572;48.804;8.330;2022-09-12T03:40:48;12.68;;;7.82;;
3549;SDS011;45572;48.804;8.330;2022-09-12T03:43:21;18.75;;;7.70;;
3549;SDS011;45572;48.804;8.330;2022-09-12T03:45:49;12.60;;;7.82;;
3549;SDS011;45572;48.804;8.330;2022-09-12T03:48:18;10.07;;;6.95;;
3549;SDS011;45572;48.804;8.330;2022-09-12T03:50:48;12.00;;;6.45;;
3549;SDS011;45572;48.804;8.330;2022-09-12T03:53:17;10.43;;;8.20;;
3549;SDS011;45572;48.804;8.330;2022-09-12T03:55:45;9.13;;;7.07;;
3549;SDS011;45572;48.804;8.330;2022-09-12T03:58:13;9.00;;;6.32;;
3549;SDS011;45572;48.804;8.330;2022-09-12T04:00:40;13.73;;;6.60;;
3549;SDS011;45572;48.804;8.330;2022-09-12T04:03:09;9.15;;;6.28;;
3549;SDS011;45572;48.804;8.330;2022-09-12T04:05:38;9.95;;;6.30;;
3549;SDS011;45572;48.804;8.330;2022-09-12T04:08:06;11.25;;;6.25;;
3549;SDS011;45572;48.804;8.330;2022-09-12T04:10:35;9.50;;;5.93;;
3549;SDS011;45572;48.804;8.330;2022-09-12T04:13:02;12.07;;;6.88;;
3549;SDS011;45572;48.804;8.330;2022-09-12T04:15:30;9.40;;;7.03;;
3549;SDS011;45572;48.804;8.330;2022-09-12T04:17:58;10.10;;;5.95;;
3549;SDS011;45572;48.804;8.330;2022-09-12T04:20:31;12.60;;;7.03;;
3549;SDS011;45572;48.804;8.330;2022-09-12T04:22:58;10.63;;;6.05;;
3549;SDS011;45572;48.804;8.330;2022-09-12T04:25:26;12.52;;;7.15;;
3549;SDS011;45572;48.804;8.330;2022-09-12T04:27:57;9.93;;;6.25;;
3549;SDS011;45572;48.804;8.330;2022-09-12T04:30:25;12.57;;;7.22;;
3549;SDS011;45572;48.804;8.330;2022-09-12T04:32:53;8.68;;;6.00;;
3549;SDS011;45572;48.804;8.330;2022-09-12T04:35:21;11.45;;;6.75;;
3549;SDS011;45572;48.804;8.330;2022-09-12T04:37:48;9.77;;;6.40;;
3549;SDS011;45572;48.804;8.330;2022-09-12T04:40:16;10.60;;;6.93;;
3549;SDS011;45572;48.804;8.330;2022-09-12T04:42:45;11.38;;;7.65;;
3549;SDS011;45572;48.804;8.330;2022-09-12T04:45:14;9.07;;;6.28;;
3549;SDS011;45572;48.804;8.330;2022-09-12T04:47:42;10.02;;;6.35;;
3549;SDS011;45572;48.804;8.330;2022-09-12T04:50:11;10.98;;;6.00;;
3549;SDS011;45572;48.804;8.330;2022-09-12T04:52:40;12.43;;;6.30;;
3549;SDS011;45572;48.804;8.330;2022-09-12T04:55:08;10.48;;;6.72;;
3549;SDS011;45572;48.804;8.330;2022-09-12T04:57:37;10.43;;;7.15;;
3549;SDS011;45572;48.804;8.330;2022-09-12T05:00:05;8.13;;;5.53;;
3549;SDS011;45572;48.804;8.330;2022-09-12T05:02:35;10.93;;;6.35;;
3549;SDS011;45572;48.804;8.330;2022-09-12T05:05:03;11.10;;;6.50;;
3549;SDS011;45572;48.804;8.330;2022-09-12T05:07:32;8.00;;;5.53;;
3549;SDS011;45572;48.804;8.330;2022-09-12T05:10:00;14.70;;;6.97;;
3549;SDS011;45572;48.804;8.330;2022-09-12T05:12:30;13.15;;;6.55;;
3549;SDS011;45572;48.804;8.330;2022-09-12T05:14:58;11.25;;;6.18;;
3549;SDS011;45572;48.804;8.330;2022-09-12T05:17:27;8.38;;;5.55;;
3549;SDS011;45572;48.804;8.330;2022-09-12T05:19:56;9.05;;;5.88;;
3549;SDS011;45572;48.804;8.330;2022-09-12T05:22:25;11.15;;;6.18;;
3549;SDS011;45572;48.804;8.330;2022-09-12T05:24:53;12.13;;;6.30;;
3549;SDS011;45572;48.804;8.330;2022-09-12T05:27:21;10.48;;;7.10;;
3549;SDS011;45572;48.804;8.330;2022-09-12T05:29:49;11.40;;;6.10;;
3549;SDS011;45572;48.804;8.330;2022-09-12T05:32:17;11.52;;;6.50;;
3549;SDS011;45572;48.804;8.330;2022-09-12T05:34:45;13.02;;;6.88;;
3549;SDS011;45572;48.804;8.330;2022-09-12T05:37:14;10.20;;;6.60;;
3549;SDS011;45572;48.804;8.330;2022-09-12T05:39:42;11.40;;;6.55;;
3549;SDS011;45572;48.804;8.330;2022-09-12T05:42:11;9.18;;;6.00;;
3549;SDS011;45572;48.804;8.330;2022-09-12T05:44:39;8.80;;;6.07;;
3549;SDS011;45572;48.804;8.330;2022-09-12T05:47:07;9.80;;;5.65;;
3549;SDS011;45572;48.804;8.330;2022-09-12T05:49:37;7.38;;;5.32;;
3549;SDS011;45572;48.804;8.330;2022-09-12T05:52:05;20.40;;;5.97;;
3549;SDS011;45572;48.804;8.330;2022-09-12T05:54:35;10.05;;;6.70;;
3549;SDS011;45572;48.804;8.330;2022-09-12T05:57:02;7.85;;;5.38;;
3549;SDS011;45572;48.804;8.330;2022-09-12T05:59:30;8.55;;;5.65;;
3549;SDS011;45572;48.804;8.330;2022-09-12T06:01:58;6.70;;;4.97;;
3549;SDS011;45572;48.804;8.330;2022-09-12T06:04:26;8.35;;;6.20;;
3549;SDS011;45572;48.804;8.330;2022-09-12T06:06:54;11.07;;;5.40;;
3549;SDS011;45572;48.804;8.330;2022-09-12T06:09:22;7.90;;;4.68;;
3549;SDS011;45572;48.804;8.330;2022-09-12T06:11:52;8.98;;;5.88;;
3549;SDS011;45572;48.804;8.330;2022-09-12T06:14:21;7.28;;;5.25;;
3549;SDS011;45572;48.804;8.330;2022-09-12T06:16:48;12.63;;;6.05;;
3549;SDS011;45572;48.804;8.330;2022-09-12T06:19:17;8.85;;;5.65;;
3549;SDS011;45572;48.804;8.330;2022-09-12T06:21:46;8.32;;;4.00;;
3549;SDS011;45572;48.804;8.330;2022-09-12T06:24:15;4.15;;;2.67;;
3549;SDS011;45572;48.804;8.330;2022-09-12T06:26:42;6.40;;;3.30;;
3549;SDS011;45572;48.804;8.330;2022-09-12T06:29:12;4.97;;;3.33;;
3549;SDS011;45572;48.804;8.330;2022-09-12T06:31:40;5.70;;;4.13;;
3549;SDS011;45572;48.804;8.330;2022-09-12T06:34:14;3.83;;;3.40;;
3549;SDS011;45572;48.804;8.330;2022-09-12T06:36:44;3.73;;;3.17;;
3549;SDS011;45572;48.804;8.330;2022-09-12T06:39:14;7.70;;;2.63;;
3549;SDS011;45572;48.804;8.330;2022-09-12T06:41:43;4.00;;;2.50;;
3549;SDS011;45572;48.804;8.330;2022-09-12T06:44:13;3.10;;;2.27;;
3549;SDS011;45572;48.804;8.330;2022-09-12T06:46:42;2.50;;;2.17;;
3549;SDS011;45572;48.804;8.330;2022-09-12T06:49:10;3.50;;;2.37;;
3549;SDS011;45572;48.804;8.330;2022-09-12T06:51:38;1.73;;;1.63;;
3549;SDS011;45572;48.804;8.330;2022-09-12T06:54:07;3.23;;;1.60;;
3549;SDS011;45572;48.804;8.330;2022-09-12T06:56:38;2.60;;;1.73;;
3549;SDS011;45572;48.804;8.330;2022-09-12T06:59:05;3.00;;;2.13;;
3549;SDS011;45572;48.804;8.330;2022-09-12T07:01:35;3.10;;;1.70;;
3549;SDS011;45572;48.804;8.330;2022-09-12T07:04:03;2.30;;;2.10;;
3549;SDS011;45572;48.804;8.330;2022-09-12T07:06:34;2.80;;;1.93;;
3549;SDS011;45572;48.804;8.330;2022-09-12T07:09:05;2.90;;;2.03;;
3549;SDS011;45572;48.804;8.330;2022-09-12T07:11:34;2.90;;;1.73;;
3549;SDS011;45572;48.804;8.330;2022-09-12T07:14:04;4.07;;;2.97;;
3549;SDS011;45572;48.804;8.330;2022-09-12T07:16:35;2.00;;;1.80;;
3549;SDS011;45572;48.804;8.330;2022-09-12T07:19:03;3.47;;;1.67;;
3549;SDS011;45572;48.804;8.330;2022-09-12T07:21:32;3.33;;;1.80;;
3549;SDS011;45572;48.804;8.330;2022-09-12T07:24:04;2.10;;;1.90;;
3549;SDS011;45572;48.804;8.330;2022-09-12T07:26:33;3.40;;;1.97;;
3549;SDS011;45572;48.804;8.330;2022-09-12T07:29:01;2.00;;;1.73;;
3549;SDS011;45572;48.804;8.330;2022-09-12T07:31:51;2.83;;;1.90;;
3549;SDS011;45572;48.804;8.330;2022-09-12T07:34:19;1.40;;;1.30;;
3549;SDS011;45572;48.804;8.330;2022-09-12T07:36:47;3.30;;;2.13;;
3549;SDS011;45572;48.804;8.330;2022-09-12T07:39:15;2.10;;;1.73;;
3549;SDS011;45572;48.804;8.330;2022-09-12T07:41:43;2.80;;;1.63;;
3549;SDS011;45572;48.804;8.330;2022-09-12T07:44:10;2.40;;;1.70;;
3549;SDS011;45572;48.804;8.330;2022-09-12T07:46:38;1.50;;;1.40;;
3549;SDS011;45572;48.804;8.330;2022-09-12T07:49:07;1.70;;;1.50;;
3549;SDS011;45572;48.804;8.330;2022-09-12T07:51:35;2.23;;;1.50;;
3549;SDS011;45572;48.804;8.330;2022-09-12T07:54:06;2.67;;;1.30;;
3549;SDS011;45572;48.804;8.330;2022-09-12T07:56:34;1.30;;;1.10;;
3549;SDS011;45572;48.804;8.330;2022-09-12T07:59:04;2.73;;;1.60;;
3549;SDS011;45572;48.804;8.330;2022-09-12T08:01:32;3.00;;;1.80;;
3549;SDS011;45572;48.804;8.330;2022-09-12T08:04:00;3.67;;;1.90;;
3549;SDS011;45572;48.804;8.330;2022-09-12T08:06:31;3.13;;;2.20;;
3549;SDS011;45572;48.804;8.330;2022-09-12T08:09:01;2.20;;;2.00;;
3549;SDS011;45572;48.804;8.330;2022-09-12T08:11:31;2.63;;;2.03;;
3549;SDS011;45572;48.804;8.330;2022-09-12T08:13:59;3.90;;;2.57;;
3549;SDS011;45572;48.804;8.330;2022-09-12T08:16:28;5.60;;;2.20;;
3549;SDS011;45572;48.804;8.330;2022-09-12T08:18:58;2.23;;;1.77;;
3549;SDS011;45572;48.804;8.330;2022-09-12T08:21:27;2.70;;;2.23;;
3549;SDS011;45572;48.804;8.330;2022-09-12T08:23:58;2.67;;;2.03;;
3549;SDS011;45572;48.804;8.330;2022-09-12T08:26:27;2.50;;;2.03;;
3549;SDS011;45572;48.804;8.330;2022-09-12T08:28:56;2.87;;;2.40;;
3549;SDS011;45572;48.804;8.330;2022-09-12T08:31:24;2.10;;;1.90;;
3549;SDS011;45572;48.804;8.330;2022-09-12T08:33:54;4.27;;;2.13;;
3549;SDS011;45572;48.804;8.330;2022-09-12T08:36:22;4.70;;;2.10;;
3549;SDS011;45572;48.804;8.330;2022-09-12T08:38:53;2.30;;;2.10;;
3549;SDS011;45572;48.804;8.330;2022-09-12T08:41:28;2.30;;;2.10;;
3549;SDS011;45572;48.804;8.330;2022-09-12T08:44:00;3.00;;;1.70;;
3549;SDS011;45572;48.804;8.330;2022-09-12T08:46:47;2.47;;;1.87;;
3549;SDS011;45572;48.804;8.330;2022-09-12T08:49:27;2.43;;;2.20;;
3549;SDS011;45572;48.804;8.330;2022-09-12T08:52:04;3.03;;;2.07;;
3549;SDS011;45572;48.804;8.330;2022-09-12T08:54:38;2.47;;;2.27;;
3549;SDS011;45572;48.804;8.330;2022-09-12T08:57:11;4.40;;;2.20;;
3549;SDS011;45572;48.804;8.330;2022-09-12T08:59:41;5.37;;;2.10;;
3549;SDS011;45572;48.804;8.330;2022-09-12T09:02:18;7.30;;;2.07;;
3549;SDS011;45572;48.804;8.330;2022-09-12T09:05:00;3.47;;;1.73;;
3549;SDS011;45572;48.804;8.330;2022-09-12T09:07:38;2.83;;;1.80;;
3549;SDS011;45572;48.804;8.330;2022-09-12T09:10:21;2.40;;;2.00;;
3549;SDS011;45572;48.804;8.330;2022-09-12T09:13:00;2.27;;;2.03;;
3549;SDS011;45572;48.804;8.330;2022-09-12T09:15:38;2.10;;;1.40;;
3549;SDS011;45572;48.804;8.330;2022-09-12T09:18:09;2.10;;;1.80;;
3549;SDS011;45572;48.804;8.330;2022-09-12T09:20:50;2.37;;;2.17;;
3549;SDS011;45572;48.804;8.330;2022-09-12T09:23:22;3.93;;;1.80;;
3549;SDS011;45572;48.804;8.330;2022-09-12T09:25:55;2.53;;;2.33;;
3549;SDS011;45572;48.804;8.330;2022-09-12T09:28:30;2.33;;;2.00;;
3549;SDS011;45572;48.804;8.330;2022-09-12T09:31:09;2.50;;;2.30;;
3549;SDS011;45572;48.804;8.330;2022-09-12T09:33:40;4.20;;;2.50;;
3549;SDS011;45572;48.804;8.330;2022-09-12T09:36:16;2.57;;;2.37;;
3549;SDS011;45572;48.804;8.330;2022-09-12T09:38:49;3.07;;;1.83;;
3549;SDS011;45572;48.804;8.330;2022-09-12T09:41:29;3.40;;;2.50;;
3549;SDS011;45572;48.804;8.330;2022-09-12T09:44:08;4.13;;;2.97;;
3549;SDS011;45572;48.804;8.330;2022-09-12T09:46:36;5.10;;;2.30;;
3549;SDS011;45572;48.804;8.330;2022-09-12T09:49:04;2.90;;;2.70;;
3549;SDS011;45572;48.804;8.330;2022-09-12T09:51:33;4.17;;;2.70;;
3549;SDS011;45572;48.804;8.330;2022-09-12T09:54:04;2.80;;;2.40;;
3549;SDS011;45572;48.804;8.330;2022-09-12T09:56:44;5.50;;;2.60;;
3549;SDS011;45572;48.804;8.330;2022-09-12T09:59:16;3.03;;;2.43;;
3549;SDS011;45572;48.804;8.330;2022-09-12T10:01:47;5.60;;;2.87;;
3549;SDS011;45572;48.804;8.330;2022-09-12T10:04:18;2.60;;;1.97;;
3549;SDS011;45572;48.804;8.330;2022-09-12T10:06:49;2.90;;;2.40;;
3549;SDS011;45572;48.804;8.330;2022-09-12T10:09:20;3.30;;;2.30;;
3549;SDS011;45572;48.804;8.330;2022-09-12T10:11:50;3.33;;;1.90;;
3549;SDS011;45572;48.804;8.330;2022-09-12T10:14:27;3.23;;;2.40;;
3549;SDS011;45572;48.804;8.330;2022-09-12T10:16:58;5.53;;;2.57;;
3549;SDS011;45572;48.804;8.330;2022-09-12T10:19:32;2.90;;;1.93;;
3549;SDS011;45572;48.804;8.330;2022-09-12T10:22:02;3.73;;;2.50;;
3549;SDS011;45572;48.804;8.330;2022-09-12T10:24:32;3.67;;;2.60;;
3549;SDS011;45572;48.804;8.330;2022-09-12T10:27:06;4.63;;;2.60;;
3549;SDS011;45572;48.804;8.330;2022-09-12T10:29:41;2.93;;;2.30;;
3549;SDS011;45572;48.804;8.330;2022-09-12T10:32:18;6.63;;;2.83;;
3549;SDS011;45572;48.804;8.330;2022-09-12T10:34:57;2.50;;;2.30;;
3549;SDS011;45572;48.804;8.330;2022-09-12T10:37:29;2.83;;;2.50;;
3549;SDS011;45572;48.804;8.330;2022-09-12T10:39:58;3.10;;;2.70;;
3549;SDS011;45572;48.804;8.330;2022-09-12T10:45:18;3.93;;;2.23;;
3549;SDS011;45572;48.804;8.330;2022-09-12T10:47:47;2.97;;;2.47;;
3549;SDS011;45572;48.804;8.330;2022-09-12T10:50:24;6.60;;;4.10;;
3549;SDS011;45572;48.804;8.330;2022-09-12T10:52:54;2.20;;;1.97;;
3549;SDS011;45572;48.804;8.330;2022-09-12T10:55:40;3.63;;;1.87;;
3549;SDS011;45572;48.804;8.330;2022-09-12T10:58:24;2.77;;;2.40;;
3549;SDS011;45572;48.804;8.330;2022-09-12T11:01:04;5.87;;;2.60;;
3549;SDS011;45572;48.804;8.330;2022-09-12T11:03:44;3.47;;;2.17;;
3549;SDS011;45572;48.804;8.330;2022-09-12T11:06:25;4.00;;;2.20;;
3549;SDS011;45572;48.804;8.330;2022-09-12T11:09:03;1.93;;;1.73;;
3549;SDS011;45572;48.804;8.330;2022-09-12T11:11:38;2.40;;;2.20;;
3549;SDS011;45572;48.804;8.330;2022-09-12T11:14:19;5.00;;;2.17;;
3549;SDS011;45572;48.804;8.330;2022-09-12T11:16:57;4.93;;;2.10;;
3549;SDS011;45572;48.804;8.330;2022-09-12T11:19:49;3.70;;;2.17;;
3549;SDS011;45572;48.804;8.330;2022-09-12T11:22:39;2.23;;;1.70;;
3549;SDS011;45572;48.804;8.330;2022-09-12T11:25:22;3.10;;;2.30;;
3549;SDS011;45572;48.804;8.330;2022-09-12T11:28:01;3.50;;;1.97;;
3549;SDS011;45572;48.804;8.330;2022-09-12T11:30:50;2.47;;;2.27;;
3549;SDS011;45572;48.804;8.330;2022-09-12T11:33:34;2.57;;;2.10;;
3549;SDS011;45572;48.804;8.330;2022-09-12T11:36:11;2.40;;;2.20;;
3549;SDS011;45572;48.804;8.330;2022-09-12T11:38:50;2.03;;;1.83;;
3549;SDS011;45572;48.804;8.330;2022-09-12T11:41:22;2.60;;;1.73;;
3549;SDS011;45572;48.804;8.330;2022-09-12T11:43:55;2.20;;;2.00;;
3549;SDS011;45572;48.804;8.330;2022-09-12T11:46:28;3.23;;;1.90;;
3549;SDS011;45572;48.804;8.330;2022-09-12T11:49:05;2.77;;;2.50;;
3549;SDS011;45572;48.804;8.330;2022-09-12T11:51:44;3.00;;;2.10;;
3549;SDS011;45572;48.804;8.330;2022-09-12T11:54:17;4.50;;;2.13;;
3549;SDS011;45572;48.804;8.330;2022-09-12T11:56:49;3.03;;;2.00;;
3549;SDS011;45572;48.804;8.330;2022-09-12T11:59:27;2.93;;;2.03;;
3549;SDS011;45572;48.804;8.330;2022-09-12T12:01:59;3.17;;;2.67;;
3549;SDS011;45572;48.804;8.330;2022-09-12T12:04:33;2.20;;;1.97;;
3549;SDS011;45572;48.804;8.330;2022-09-12T12:07:06;5.20;;;2.40;;
3549;SDS011;45572;48.804;8.330;2022-09-12T12:09:42;3.20;;;2.57;;
3549;SDS011;45572;48.804;8.330;2022-09-12T12:12:14;3.27;;;2.33;;
3549;SDS011;45572;48.804;8.330;2022-09-12T12:14:47;3.33;;;2.90;;
3549;SDS011;45572;48.804;8.330;2022-09-12T12:17:17;4.10;;;3.20;;
3549;SDS011;45572;48.804;8.330;2022-09-12T12:19:55;5.60;;;3.20;;
3549;SDS011;45572;48.804;8.330;2022-09-12T12:22:32;3.87;;;2.90;;
3549;SDS011;45572;48.804;8.330;2022-09-12T12:25:03;3.53;;;2.90;;
3549;SDS011;45572;48.804;8.330;2022-09-12T12:36:28;4.03;;;3.10;;
3549;SDS011;45572;48.804;8.330;2022-09-12T12:42:00;3.33;;;3.13;;
3549;SDS011;45572;48.804;8.330;2022-09-12T12:47:16;4.80;;;2.60;;
3549;SDS011;45572;48.804;8.330;2022-09-12T12:49:51;3.83;;;2.63;;
3549;SDS011;45572;48.804;8.330;2022-09-12T12:52:23;3.30;;;2.63;;
3549;SDS011;45572;48.804;8.330;2022-09-12T12:54:57;4.63;;;2.37;;
3549;SDS011;45572;48.804;8.330;2022-09-12T12:57:27;6.97;;;3.30;;
3549;SDS011;45572;48.804;8.330;2022-09-12T12:59:59;4.10;;;2.93;;
3549;SDS011;45572;48.804;8.330;2022-09-12T13:02:31;3.90;;;2.90;;
3549;SDS011;45572;48.804;8.330;2022-09-12T13:05:05;2.93;;;2.63;;
3549;SDS011;45572;48.804;8.330;2022-09-12T13:07:46;3.77;;;3.40;;
3549;SDS011;45572;48.804;8.330;2022-09-12T13:10:22;3.63;;;3.10;;
3549;SDS011;45572;48.804;8.330;2022-09-12T13:12:53;4.93;;;3.40;;
3549;SDS011;45572;48.804;8.330;2022-09-12T13:18:22;4.60;;;2.90;;
3549;SDS011;45572;48.804;8.330;2022-09-12T13:20:59;9.53;;;2.50;;
3549;SDS011;45572;48.804;8.330;2022-09-12T13:23:35;4.63;;;2.70;;
3549;SDS011;45572;48.804;8.330;2022-09-12T13:26:03;4.87;;;3.13;;
3549;SDS011;45572;48.804;8.330;2022-09-12T13:28:37;7.30;;;2.77;;
3549;SDS011;45572;48.804;8.330;2022-09-12T13:31:08;3.20;;;2.73;;
3549;SDS011;45572;48.804;8.330;2022-09-12T13:33:43;3.80;;;2.63;;
3549;SDS011;45572;48.804;8.330;2022-09-12T13:36:25;4.10;;;2.90;;
3549;SDS011;45572;48.804;8.330;2022-09-12T13:39:08;5.63;;;2.67;;
3549;SDS011;45572;48.804;8.330;2022-09-12T13:41:48;3.23;;;2.90;;
3549;SDS011;45572;48.804;8.330;2022-09-12T13:44:36;4.80;;;2.70;;
3549;SDS011;45572;48.804;8.330;2022-09-12T13:47:09;2.77;;;2.40;;
3549;SDS011;45572;48.804;8.330;2022-09-12T13:49:47;20.27;;;16.13;;
3549;SDS011;45572;48.804;8.330;2022-09-12T13:52:18;5.40;;;4.63;;
3549;SDS011;45572;48.804;8.330;2022-09-12T13:54:56;3.20;;;2.90;;
3549;SDS011;45572;48.804;8.330;2022-09-12T13:57:26;3.20;;;2.90;;
3549;SDS011;45572;48.804;8.330;2022-09-12T14:00:03;3.63;;;2.63;;
3549;SDS011;45572;48.804;8.330;2022-09-12T14:02:35;4.37;;;2.70;;
3549;SDS011;45572;48.804;8.330;2022-09-12T14:05:11;6.80;;;4.97;;
3549;SDS011;45572;48.804;8.330;2022-09-12T14:07:45;4.40;;;2.83;;
3549;SDS011;45572;48.804;8.330;2022-09-12T14:10:22;3.70;;;3.30;;
3549;SDS011;45572;48.804;8.330;2022-09-12T14:12:55;2.60;;;2.33;;
3549;SDS011;45572;48.804;8.330;2022-09-12T14:15:24;3.47;;;2.87;;
3549;SDS011;45572;48.804;8.330;2022-09-12T14:18:00;2.70;;;2.30;;
3549;SDS011;45572;48.804;8.330;2022-09-12T14:20:31;3.53;;;3.23;;
3549;SDS011;45572;48.804;8.330;2022-09-12T14:23:04;10.40;;;3.13;;
3549;SDS011;45572;48.804;8.330;2022-09-12T14:25:45;3.50;;;2.60;;
3549;SDS011;45572;48.804;8.330;2022-09-12T14:28:15;4.80;;;3.80;;
3549;SDS011;45572;48.804;8.330;2022-09-12T14:30:57;4.40;;;3.33;;
3549;SDS011;45572;48.804;8.330;2022-09-12T14:33:27;3.20;;;2.70;;
3549;SDS011;45572;48.804;8.330;2022-09-12T14:36:06;3.80;;;2.87;;
3549;SDS011;45572;48.804;8.330;2022-09-12T14:38:39;6.27;;;4.10;;
3549;SDS011;45572;48.804;8.330;2022-09-12T14:41:10;3.27;;;2.67;;
3549;SDS011;45572;48.804;8.330;2022-09-12T14:43:50;2.53;;;2.33;;
3549;SDS011;45572;48.804;8.330;2022-09-12T14:46:21;3.67;;;2.87;;
3549;SDS011;45572;48.804;8.330;2022-09-12T14:48:56;4.57;;;2.87;;
3549;SDS011;45572;48.804;8.330;2022-09-12T14:51:30;4.23;;;2.90;;
3549;SDS011;45572;48.804;8.330;2022-09-12T14:53:59;2.57;;;2.37;;
3549;SDS011;45572;48.804;8.330;2022-09-12T14:59:24;3.80;;;2.67;;
3549;SDS011;45572;48.804;8.330;2022-09-12T15:04:45;4.23;;;2.70;;
3549;SDS011;45572;48.804;8.330;2022-09-12T15:07:17;2.90;;;2.60;;
3549;SDS011;45572;48.804;8.330;2022-09-12T15:09:52;2.97;;;2.50;;
3549;SDS011;45572;48.804;8.330;2022-09-12T15:12:21;3.27;;;2.97;;
3549;SDS011;45572;48.804;8.330;2022-09-12T15:14:49;3.50;;;3.20;;
3549;SDS011;45572;48.804;8.330;2022-09-12T15:17:16;3.90;;;3.03;;
3549;SDS011;45572;48.804;8.330;2022-09-12T15:19:44;4.27;;;3.00;;
3549;SDS011;45572;48.804;8.330;2022-09-12T15:22:12;3.10;;;2.80;;
3549;SDS011;45572;48.804;8.330;2022-09-12T15:24:40;3.50;;;3.20;;
3549;SDS011;45572;48.804;8.330;2022-09-12T15:27:09;3.60;;;2.70;;
3549;SDS011;45572;48.804;8.330;2022-09-12T15:29:39;2.80;;;2.60;;
3549;SDS011;45572;48.804;8.330;2022-09-12T15:32:09;4.03;;;2.70;;
3549;SDS011;45572;48.804;8.330;2022-09-12T15:34:48;3.00;;;2.70;;
3549;SDS011;45572;48.804;8.330;2022-09-12T15:37:15;3.37;;;2.73;;
3549;SDS011;45572;48.804;8.330;2022-09-12T15:39:44;3.27;;;2.70;;
3549;SDS011;45572;48.804;8.330;2022-09-12T15:42:12;3.77;;;3.10;;
3549;SDS011;45572;48.804;8.330;2022-09-12T15:44:42;2.53;;;2.17;;
3549;SDS011;45572;48.804;8.330;2022-09-12T15:47:10;4.03;;;2.40;;
3549;SDS011;45572;48.804;8.330;2022-09-12T15:49:39;3.00;;;2.10;;
3549;SDS011;45572;48.804;8.330;2022-09-12T15:52:08;2.67;;;2.40;;
3549;SDS011;45572;48.804;8.330;2022-09-12T15:54:41;2.97;;;2.43;;